sensor_id;sensor_type;location;lat;lon;timestamp;P1;durP1;ratioP1;P2;durP2;ratioP2
10295;SDS011;5193;51.032;6.356;2023-02-28T00:00:26;14.37;;;5.10;;
10295;SDS011;5193;51.032;6.356;2023-02-28T00:02:52;8.30;;;4.70;;
10295;SDS011;5193;51.032;6.356;2023-02-28T00:05:19;9.30;;;5.33;;
10295;SDS011;5193;51.032;6.356;2023-02-28T00:07:47;11.40;;;4.90;;
10295;SDS011;5193;51.032;6.356;2023-02-28T00:10:15;6.93;;;4.37;;
10295;SDS011;5193;51.032;6.356;2023-02-28T00:12:45;7.03;;;4.90;;
10295;SDS011;5193;51.032;6.356;2023-02-28T00:15:12;7.10;;;5.03;;
10295;SDS011;5193;51.032;6.356;2023-02-28T00:17:37;8.03;;;4.63;;
10295;SDS011;5193;51.032;6.356;2023-02-28T00:20:04;12.63;;;4.60;;
10295;SDS011;5193;51.032;6.356;2023-02-28T00:22:33;6.97;;;4.80;;
10295;SDS011;5193;51.032;6.356;2023-02-28T00:24:58;6.80;;;4.20;;
10295;SDS011;5193;51.032;6.356;2023-02-28T00:27:24;10.90;;;4.30;;
10295;SDS011;5193;51.032;6.356;2023-02-28T00:29:49;5.47;;;3.90;;
10295;SDS011;5193;51.032;6.356;2023-02-28T00:32:15;8.23;;;4.30;;
10295;SDS011;5193;51.032;6.356;2023-02-28T00:34:40;8.40;;;4.67;;
10295;SDS011;5193;51.032;6.356;2023-02-28T00:37:07;6.77;;;4.13;;
10295;SDS011;5193;51.032;6.356;2023-02-28T00:39:35;6.33;;;3.80;;
10295;SDS011;5193;51.032;6.356;2023-02-28T00:42:01;5.23;;;3.43;;
10295;SDS011;5193;51.032;6.356;2023-02-28T00:44:28;6.37;;;3.80;;
10295;SDS011;5193;51.032;6.356;2023-02-28T00:46:54;12.20;;;4.30;;
10295;SDS011;5193;51.032;6.356;2023-02-28T00:49:21;3.97;;;3.23;;
10295;SDS011;5193;51.032;6.356;2023-02-28T00:51:47;5.50;;;3.57;;
10295;SDS011;5193;51.032;6.356;2023-02-28T00:54:13;7.47;;;3.80;;
10295;SDS011;5193;51.032;6.356;2023-02-28T00:56:38;6.63;;;3.20;;
10295;SDS011;5193;51.032;6.356;2023-02-28T00:59:04;6.80;;;3.93;;
10295;SDS011;5193;51.032;6.356;2023-02-28T01:01:29;8.70;;;4.17;;
10295;SDS011;5193;51.032;6.356;2023-02-28T01:03:55;6.77;;;3.90;;
10295;SDS011;5193;51.032;6.356;2023-02-28T01:06:21;12.30;;;4.27;;
10295;SDS011;5193;51.032;6.356;2023-02-28T01:08:46;6.47;;;3.80;;
10295;SDS011;5193;51.032;6.356;2023-02-28T01:11:13;6.90;;;3.80;;
10295;SDS011;5193;51.032;6.356;2023-02-28T01:13:41;6.53;;;3.83;;
10295;SDS011;5193;51.032;6.356;2023-02-28T01:16:07;8.30;;;4.07;;
10295;SDS011;5193;51.032;6.356;2023-02-28T01:18:33;10.87;;;3.93;;
10295;SDS011;5193;51.032;6.356;2023-02-28T01:21:02;6.97;;;3.60;;
10295;SDS011;5193;51.032;6.356;2023-02-28T01:23:32;10.23;;;4.40;;
10295;SDS011;5193;51.032;6.356;2023-02-28T01:26:03;9.23;;;3.97;;
10295;SDS011;5193;51.032;6.356;2023-02-28T01:28:32;8.67;;;3.67;;
10295;SDS011;5193;51.032;6.356;2023-02-28T01:30:58;5.07;;;3.73;;
10295;SDS011;5193;51.032;6.356;2023-02-28T01:33:24;6.63;;;3.40;;
10295;SDS011;5193;51.032;6.356;2023-02-28T01:35:57;7.57;;;3.63;;
10295;SDS011;5193;51.032;6.356;2023-02-28T01:38:23;4.43;;;3.33;;
10295;SDS011;5193;51.032;6.356;2023-02-28T01:40:49;5.63;;;3.40;;
10295;SDS011;5193;51.032;6.356;2023-02-28T01:43:19;9.90;;;3.67;;
10295;SDS011;5193;51.032;6.356;2023-02-28T01:45:50;5.33;;;3.67;;
10295;SDS011;5193;51.032;6.356;2023-02-28T01:48:17;12.33;;;4.20;;
10295;SDS011;5193;51.032;6.356;2023-02-28T01:50:45;6.03;;;3.80;;
10295;SDS011;5193;51.032;6.356;2023-02-28T01:53:13;9.73;;;4.10;;
10295;SDS011;5193;51.032;6.356;2023-02-28T01:55:42;10.13;;;3.57;;
10295;SDS011;5193;51.032;6.356;2023-02-28T01:58:12;9.03;;;4.60;;
10295;SDS011;5193;51.032;6.356;2023-02-28T02:00:38;8.07;;;3.17;;
10295;SDS011;5193;51.032;6.356;2023-02-28T02:03:06;8.77;;;3.33;;
10295;SDS011;5193;51.032;6.356;2023-02-28T02:05:34;10.63;;;4.03;;
10295;SDS011;5193;51.032;6.356;2023-02-28T02:08:10;9.00;;;3.50;;
10295;SDS011;5193;51.032;6.356;2023-02-28T02:10:41;6.03;;;3.87;;
10295;SDS011;5193;51.032;6.356;2023-02-28T02:26:58;8.57;;;3.50;;
10295;SDS011;5193;51.032;6.356;2023-02-28T02:35:00;6.97;;;3.60;;
10295;SDS011;5193;51.032;6.356;2023-02-28T02:37:43;6.87;;;3.50;;
10295;SDS011;5193;51.032;6.356;2023-02-28T02:40:19;6.97;;;3.53;;
10295;SDS011;5193;51.032;6.356;2023-02-28T02:48:00;13.73;;;3.57;;
10295;SDS011;5193;51.032;6.356;2023-02-28T02:50:44;8.03;;;3.37;;
10295;SDS011;5193;51.032;6.356;2023-02-28T02:53:14;10.87;;;3.53;;
10295;SDS011;5193;51.032;6.356;2023-02-28T02:55:43;8.30;;;3.80;;
10295;SDS011;5193;51.032;6.356;2023-02-28T02:58:13;9.40;;;4.03;;
10295;SDS011;5193;51.032;6.356;2023-02-28T03:00:42;7.87;;;3.67;;
10295;SDS011;5193;51.032;6.356;2023-02-28T03:03:12;9.00;;;4.40;;
10295;SDS011;5193;51.032;6.356;2023-02-28T03:05:44;15.87;;;4.23;;
10295;SDS011;5193;51.032;6.356;2023-02-28T03:08:13;7.73;;;4.60;;
10295;SDS011;5193;51.032;6.356;2023-02-28T03:10:41;8.00;;;4.60;;
10295;SDS011;5193;51.032;6.356;2023-02-28T03:16:05;7.43;;;5.20;;
10295;SDS011;5193;51.032;6.356;2023-02-28T03:22:14;8.13;;;5.23;;
10295;SDS011;5193;51.032;6.356;2023-02-28T03:24:39;10.27;;;5.53;;
10295;SDS011;5193;51.032;6.356;2023-02-28T03:27:11;11.30;;;5.57;;
10295;SDS011;5193;51.032;6.356;2023-02-28T03:29:43;12.77;;;5.80;;
10295;SDS011;5193;51.032;6.356;2023-02-28T03:32:21;10.43;;;5.73;;
10295;SDS011;5193;51.032;6.356;2023-02-28T03:34:56;8.07;;;5.33;;
10295;SDS011;5193;51.032;6.356;2023-02-28T03:37:30;9.87;;;5.80;;
10295;SDS011;5193;51.032;6.356;2023-02-28T03:40:03;10.87;;;5.47;;
10295;SDS011;5193;51.032;6.356;2023-02-28T03:42:34;7.70;;;5.53;;
10295;SDS011;5193;51.032;6.356;2023-02-28T03:45:10;9.17;;;5.60;;
10295;SDS011;5193;51.032;6.356;2023-02-28T03:47:51;8.23;;;5.43;;
10295;SDS011;5193;51.032;6.356;2023-02-28T03:50:24;7.97;;;5.17;;
10295;SDS011;5193;51.032;6.356;2023-02-28T03:55:38;8.00;;;5.17;;
10295;SDS011;5193;51.032;6.356;2023-02-28T03:58:15;9.33;;;5.20;;
10295;SDS011;5193;51.032;6.356;2023-02-28T04:01:05;11.10;;;6.00;;
10295;SDS011;5193;51.032;6.356;2023-02-28T04:03:37;7.60;;;5.37;;
10295;SDS011;5193;51.032;6.356;2023-02-28T04:06:04;8.63;;;5.50;;
10295;SDS011;5193;51.032;6.356;2023-02-28T04:08:32;11.60;;;5.10;;
10295;SDS011;5193;51.032;6.356;2023-02-28T04:11:02;8.53;;;5.60;;
10295;SDS011;5193;51.032;6.356;2023-02-28T04:13:32;9.27;;;5.00;;
10295;SDS011;5193;51.032;6.356;2023-02-28T04:15:57;9.93;;;5.57;;
10295;SDS011;5193;51.032;6.356;2023-02-28T04:18:23;10.60;;;5.67;;
10295;SDS011;5193;51.032;6.356;2023-02-28T04:20:48;10.43;;;6.40;;
10295;SDS011;5193;51.032;6.356;2023-02-28T04:23:14;10.27;;;5.50;;
10295;SDS011;5193;51.032;6.356;2023-02-28T04:25:39;10.03;;;6.23;;
10295;SDS011;5193;51.032;6.356;2023-02-28T04:28:05;12.17;;;6.57;;
10295;SDS011;5193;51.032;6.356;2023-02-28T04:30:31;7.70;;;5.53;;
10295;SDS011;5193;51.032;6.356;2023-02-28T04:32:57;11.77;;;5.77;;
10295;SDS011;5193;51.032;6.356;2023-02-28T04:35:23;9.53;;;5.70;;
10295;SDS011;5193;51.032;6.356;2023-02-28T04:37:49;9.93;;;5.47;;
10295;SDS011;5193;51.032;6.356;2023-02-28T04:40:14;8.90;;;5.30;;
10295;SDS011;5193;51.032;6.356;2023-02-28T04:42:40;8.73;;;5.30;;
10295;SDS011;5193;51.032;6.356;2023-02-28T04:45:06;10.77;;;6.37;;
10295;SDS011;5193;51.032;6.356;2023-02-28T04:47:35;10.93;;;5.03;;
10295;SDS011;5193;51.032;6.356;2023-02-28T04:50:01;9.03;;;5.67;;
10295;SDS011;5193;51.032;6.356;2023-02-28T04:52:26;11.53;;;7.00;;
10295;SDS011;5193;51.032;6.356;2023-02-28T04:54:52;7.97;;;5.50;;
10295;SDS011;5193;51.032;6.356;2023-02-28T04:57:18;9.00;;;5.57;;
10295;SDS011;5193;51.032;6.356;2023-02-28T04:59:43;9.73;;;5.27;;
10295;SDS011;5193;51.032;6.356;2023-02-28T05:02:09;11.57;;;6.20;;
10295;SDS011;5193;51.032;6.356;2023-02-28T05:04:35;9.07;;;5.90;;
10295;SDS011;5193;51.032;6.356;2023-02-28T05:07:01;12.03;;;6.70;;
10295;SDS011;5193;51.032;6.356;2023-02-28T05:09:27;10.30;;;6.70;;
10295;SDS011;5193;51.032;6.356;2023-02-28T05:11:54;9.10;;;6.17;;
10295;SDS011;5193;51.032;6.356;2023-02-28T05:14:20;10.20;;;5.40;;
10295;SDS011;5193;51.032;6.356;2023-02-28T05:16:46;10.40;;;5.80;;
10295;SDS011;5193;51.032;6.356;2023-02-28T05:19:11;8.80;;;5.90;;
10295;SDS011;5193;51.032;6.356;2023-02-28T05:21:41;8.07;;;5.23;;
10295;SDS011;5193;51.032;6.356;2023-02-28T05:24:14;13.23;;;5.83;;
10295;SDS011;5193;51.032;6.356;2023-02-28T05:26:40;12.37;;;5.07;;
10295;SDS011;5193;51.032;6.356;2023-02-28T05:29:07;7.57;;;5.53;;
10295;SDS011;5193;51.032;6.356;2023-02-28T05:31:34;10.10;;;5.67;;
10295;SDS011;5193;51.032;6.356;2023-02-28T05:34:00;8.73;;;4.83;;
10295;SDS011;5193;51.032;6.356;2023-02-28T05:36:25;12.33;;;5.50;;
10295;SDS011;5193;51.032;6.356;2023-02-28T05:38:51;13.20;;;5.63;;
10295;SDS011;5193;51.032;6.356;2023-02-28T05:41:18;7.97;;;5.13;;
10295;SDS011;5193;51.032;6.356;2023-02-28T05:43:44;7.17;;;4.93;;
10295;SDS011;5193;51.032;6.356;2023-02-28T05:46:11;8.17;;;5.47;;
10295;SDS011;5193;51.032;6.356;2023-02-28T05:48:37;9.63;;;5.67;;
10295;SDS011;5193;51.032;6.356;2023-02-28T05:51:05;9.93;;;5.10;;
10295;SDS011;5193;51.032;6.356;2023-02-28T05:53:31;7.63;;;5.30;;
10295;SDS011;5193;51.032;6.356;2023-02-28T05:55:57;7.20;;;5.20;;
10295;SDS011;5193;51.032;6.356;2023-02-28T05:58:24;8.03;;;5.40;;
10295;SDS011;5193;51.032;6.356;2023-02-28T06:00:55;8.97;;;4.80;;
10295;SDS011;5193;51.032;6.356;2023-02-28T06:03:22;8.53;;;5.10;;
10295;SDS011;5193;51.032;6.356;2023-02-28T06:05:47;7.50;;;4.70;;
10295;SDS011;5193;51.032;6.356;2023-02-28T06:08:13;7.50;;;4.87;;
10295;SDS011;5193;51.032;6.356;2023-02-28T06:10:38;8.27;;;4.50;;
10295;SDS011;5193;51.032;6.356;2023-02-28T06:13:04;7.10;;;4.30;;
10295;SDS011;5193;51.032;6.356;2023-02-28T06:15:30;9.10;;;4.73;;
10295;SDS011;5193;51.032;6.356;2023-02-28T06:17:56;12.57;;;4.53;;
10295;SDS011;5193;51.032;6.356;2023-02-28T06:20:23;9.33;;;4.40;;
10295;SDS011;5193;51.032;6.356;2023-02-28T06:22:51;6.67;;;4.77;;
10295;SDS011;5193;51.032;6.356;2023-02-28T06:25:19;6.83;;;4.60;;
10295;SDS011;5193;51.032;6.356;2023-02-28T06:27:44;8.93;;;5.07;;
10295;SDS011;5193;51.032;6.356;2023-02-28T06:30:10;6.93;;;4.53;;
10295;SDS011;5193;51.032;6.356;2023-02-28T06:32:36;8.57;;;4.83;;
10295;SDS011;5193;51.032;6.356;2023-02-28T06:35:02;6.73;;;4.30;;
10295;SDS011;5193;51.032;6.356;2023-02-28T06:37:28;9.03;;;4.63;;
10295;SDS011;5193;51.032;6.356;2023-02-28T06:39:55;9.57;;;4.90;;
10295;SDS011;5193;51.032;6.356;2023-02-28T06:42:21;6.83;;;5.10;;
10295;SDS011;5193;51.032;6.356;2023-02-28T06:44:49;11.90;;;5.60;;
10295;SDS011;5193;51.032;6.356;2023-02-28T06:47:15;10.23;;;5.20;;
10295;SDS011;5193;51.032;6.356;2023-02-28T06:49:41;11.00;;;5.00;;
10295;SDS011;5193;51.032;6.356;2023-02-28T06:52:07;6.73;;;4.27;;
10295;SDS011;5193;51.032;6.356;2023-02-28T06:54:33;8.17;;;4.30;;
10295;SDS011;5193;51.032;6.356;2023-02-28T06:56:59;15.93;;;6.27;;
10295;SDS011;5193;51.032;6.356;2023-02-28T06:59:24;7.07;;;4.17;;
10295;SDS011;5193;51.032;6.356;2023-02-28T07:01:50;7.73;;;4.53;;
10295;SDS011;5193;51.032;6.356;2023-02-28T07:04:15;6.60;;;4.47;;
10295;SDS011;5193;51.032;6.356;2023-02-28T07:06:41;11.17;;;5.37;;
10295;SDS011;5193;51.032;6.356;2023-02-28T07:09:07;7.57;;;4.60;;
10295;SDS011;5193;51.032;6.356;2023-02-28T07:11:33;6.47;;;4.63;;
10295;SDS011;5193;51.032;6.356;2023-02-28T07:13:59;6.87;;;4.83;;
10295;SDS011;5193;51.032;6.356;2023-02-28T07:16:24;7.10;;;4.93;;
10295;SDS011;5193;51.032;6.356;2023-02-28T07:18:53;8.47;;;4.50;;
10295;SDS011;5193;51.032;6.356;2023-02-28T07:21:20;8.43;;;4.80;;
10295;SDS011;5193;51.032;6.356;2023-02-28T07:23:46;12.47;;;4.83;;
10295;SDS011;5193;51.032;6.356;2023-02-28T07:26:12;8.90;;;5.40;;
10295;SDS011;5193;51.032;6.356;2023-02-28T07:28:43;9.83;;;4.83;;
10295;SDS011;5193;51.032;6.356;2023-02-28T07:31:10;14.03;;;4.93;;
10295;SDS011;5193;51.032;6.356;2023-02-28T07:33:38;8.93;;;5.10;;
10295;SDS011;5193;51.032;6.356;2023-02-28T07:36:05;10.17;;;5.10;;
10295;SDS011;5193;51.032;6.356;2023-02-28T07:38:33;6.60;;;3.43;;
10295;SDS011;5193;51.032;6.356;2023-02-28T07:41:00;6.63;;;4.83;;
10295;SDS011;5193;51.032;6.356;2023-02-28T07:43:29;7.93;;;4.37;;
10295;SDS011;5193;51.032;6.356;2023-02-28T07:45:55;9.67;;;4.70;;
10295;SDS011;5193;51.032;6.356;2023-02-28T07:48:20;7.57;;;5.13;;
10295;SDS011;5193;51.032;6.356;2023-02-28T07:50:53;9.60;;;4.73;;
10295;SDS011;5193;51.032;6.356;2023-02-28T07:53:20;12.77;;;5.37;;
10295;SDS011;5193;51.032;6.356;2023-02-28T07:55:45;10.37;;;5.17;;
10295;SDS011;5193;51.032;6.356;2023-02-28T07:58:11;10.50;;;5.20;;
10295;SDS011;5193;51.032;6.356;2023-02-28T08:00:37;5.83;;;4.10;;
10295;SDS011;5193;51.032;6.356;2023-02-28T08:03:02;10.43;;;4.83;;
10295;SDS011;5193;51.032;6.356;2023-02-28T08:05:28;10.60;;;5.23;;
10295;SDS011;5193;51.032;6.356;2023-02-28T08:07:55;11.07;;;4.20;;
10295;SDS011;5193;51.032;6.356;2023-02-28T08:10:20;9.40;;;4.70;;
10295;SDS011;5193;51.032;6.356;2023-02-28T08:12:46;6.97;;;5.10;;
10295;SDS011;5193;51.032;6.356;2023-02-28T08:15:12;9.83;;;5.30;;
10295;SDS011;5193;51.032;6.356;2023-02-28T08:17:37;14.13;;;5.07;;
10295;SDS011;5193;51.032;6.356;2023-02-28T08:20:03;14.93;;;4.73;;
10295;SDS011;5193;51.032;6.356;2023-02-28T08:22:29;6.93;;;4.00;;
10295;SDS011;5193;51.032;6.356;2023-02-28T08:24:54;7.83;;;4.30;;
10295;SDS011;5193;51.032;6.356;2023-02-28T08:27:20;7.93;;;4.87;;
10295;SDS011;5193;51.032;6.356;2023-02-28T08:29:45;8.13;;;4.20;;
10295;SDS011;5193;51.032;6.356;2023-02-28T08:32:11;8.20;;;4.57;;
10295;SDS011;5193;51.032;6.356;2023-02-28T08:34:38;10.03;;;4.87;;
10295;SDS011;5193;51.032;6.356;2023-02-28T08:37:04;9.60;;;4.50;;
10295;SDS011;5193;51.032;6.356;2023-02-28T08:39:30;8.57;;;4.20;;
10295;SDS011;5193;51.032;6.356;2023-02-28T08:41:58;7.43;;;4.43;;
10295;SDS011;5193;51.032;6.356;2023-02-28T08:44:24;10.80;;;4.83;;
10295;SDS011;5193;51.032;6.356;2023-02-28T08:46:49;10.23;;;4.50;;
10295;SDS011;5193;51.032;6.356;2023-02-28T08:49:15;8.67;;;3.90;;
10295;SDS011;5193;51.032;6.356;2023-02-28T08:51:40;6.93;;;4.43;;
10295;SDS011;5193;51.032;6.356;2023-02-28T08:54:07;7.47;;;4.50;;
10295;SDS011;5193;51.032;6.356;2023-02-28T08:56:33;5.47;;;4.43;;
10295;SDS011;5193;51.032;6.356;2023-02-28T08:58:59;5.43;;;3.10;;
10295;SDS011;5193;51.032;6.356;2023-02-28T09:01:28;3.27;;;2.53;;
10295;SDS011;5193;51.032;6.356;2023-02-28T09:03:56;5.70;;;2.77;;
10295;SDS011;5193;51.032;6.356;2023-02-28T09:06:23;3.43;;;2.50;;
10295;SDS011;5193;51.032;6.356;2023-02-28T09:08:51;4.60;;;2.70;;
10295;SDS011;5193;51.032;6.356;2023-02-28T09:11:17;3.57;;;2.90;;
10295;SDS011;5193;51.032;6.356;2023-02-28T09:13:44;8.10;;;3.53;;
10295;SDS011;5193;51.032;6.356;2023-02-28T09:16:11;8.67;;;4.00;;
10295;SDS011;5193;51.032;6.356;2023-02-28T09:18:39;5.97;;;2.83;;
10295;SDS011;5193;51.032;6.356;2023-02-28T09:21:05;10.73;;;5.03;;
10295;SDS011;5193;51.032;6.356;2023-02-28T09:23:32;5.17;;;2.90;;
10295;SDS011;5193;51.032;6.356;2023-02-28T09:25:58;5.60;;;3.40;;
10295;SDS011;5193;51.032;6.356;2023-02-28T09:28:23;2.67;;;1.80;;
10295;SDS011;5193;51.032;6.356;2023-02-28T09:30:51;3.10;;;2.20;;
10295;SDS011;5193;51.032;6.356;2023-02-28T09:33:18;5.13;;;1.83;;
10295;SDS011;5193;51.032;6.356;2023-02-28T09:35:47;3.13;;;2.57;;
10295;SDS011;5193;51.032;6.356;2023-02-28T09:38:14;4.10;;;2.73;;
10295;SDS011;5193;51.032;6.356;2023-02-28T09:40:45;8.23;;;2.80;;
10295;SDS011;5193;51.032;6.356;2023-02-28T09:43:16;2.80;;;2.00;;
10295;SDS011;5193;51.032;6.356;2023-02-28T09:45:47;2.03;;;1.50;;
10295;SDS011;5193;51.032;6.356;2023-02-28T09:48:23;5.63;;;1.87;;
10295;SDS011;5193;51.032;6.356;2023-02-28T09:50:55;2.00;;;1.50;;
10295;SDS011;5193;51.032;6.356;2023-02-28T09:53:35;4.33;;;2.00;;
10295;SDS011;5193;51.032;6.356;2023-02-28T09:56:05;2.63;;;1.70;;
10295;SDS011;5193;51.032;6.356;2023-02-28T09:58:42;3.03;;;2.00;;
10295;SDS011;5193;51.032;6.356;2023-02-28T10:04:42;1.77;;;1.40;;
10295;SDS011;5193;51.032;6.356;2023-02-28T10:13:24;2.90;;;1.60;;
10295;SDS011;5193;51.032;6.356;2023-02-28T10:16:06;4.40;;;1.80;;
10295;SDS011;5193;51.032;6.356;2023-02-28T10:21:35;3.07;;;1.80;;
10295;SDS011;5193;51.032;6.356;2023-02-28T10:26:41;5.20;;;1.90;;
10295;SDS011;5193;51.032;6.356;2023-02-28T10:29:10;3.90;;;1.90;;
10295;SDS011;5193;51.032;6.356;2023-02-28T10:31:35;1.70;;;1.57;;
10295;SDS011;5193;51.032;6.356;2023-02-28T10:34:01;2.33;;;1.70;;
10295;SDS011;5193;51.032;6.356;2023-02-28T10:36:29;2.23;;;1.60;;
10295;SDS011;5193;51.032;6.356;2023-02-28T10:38:54;2.57;;;1.80;;
10295;SDS011;5193;51.032;6.356;2023-02-28T10:41:30;2.13;;;1.67;;
10295;SDS011;5193;51.032;6.356;2023-02-28T10:46:56;2.73;;;1.70;;
10295;SDS011;5193;51.032;6.356;2023-02-28T10:49:28;7.17;;;2.23;;
10295;SDS011;5193;51.032;6.356;2023-02-28T10:51:55;3.03;;;2.07;;
10295;SDS011;5193;51.032;6.356;2023-02-28T10:54:32;2.90;;;2.10;;
10295;SDS011;5193;51.032;6.356;2023-02-28T10:57:19;2.53;;;2.00;;
10295;SDS011;5193;51.032;6.356;2023-02-28T10:59:50;6.47;;;4.00;;
10295;SDS011;5193;51.032;6.356;2023-02-28T11:02:34;2.93;;;2.13;;
10295;SDS011;5193;51.032;6.356;2023-02-28T11:05:02;2.60;;;1.80;;
10295;SDS011;5193;51.032;6.356;2023-02-28T11:07:50;4.97;;;3.00;;
10295;SDS011;5193;51.032;6.356;2023-02-28T11:10:19;2.10;;;1.37;;
10295;SDS011;5193;51.032;6.356;2023-02-28T11:12:46;3.77;;;2.87;;
10295;SDS011;5193;51.032;6.356;2023-02-28T11:15:21;3.10;;;1.83;;
10295;SDS011;5193;51.032;6.356;2023-02-28T11:17:55;3.23;;;1.70;;
10295;SDS011;5193;51.032;6.356;2023-02-28T11:20:28;3.57;;;2.13;;
10295;SDS011;5193;51.032;6.356;2023-02-28T11:22:57;7.87;;;4.27;;
10295;SDS011;5193;51.032;6.356;2023-02-28T11:25:27;6.50;;;2.27;;
10295;SDS011;5193;51.032;6.356;2023-02-28T11:27:59;2.63;;;2.20;;
10295;SDS011;5193;51.032;6.356;2023-02-28T11:30:38;7.67;;;3.13;;
10295;SDS011;5193;51.032;6.356;2023-02-28T11:33:21;5.10;;;3.03;;
10295;SDS011;5193;51.032;6.356;2023-02-28T11:36:09;5.00;;;2.80;;
10295;SDS011;5193;51.032;6.356;2023-02-28T11:38:46;4.60;;;3.17;;
10295;SDS011;5193;51.032;6.356;2023-02-28T11:41:17;5.90;;;2.70;;
10295;SDS011;5193;51.032;6.356;2023-02-28T11:44:19;6.53;;;4.10;;
10295;SDS011;5193;51.032;6.356;2023-02-28T11:47:02;3.27;;;2.53;;
10295;SDS011;5193;51.032;6.356;2023-02-28T11:55:27;2.10;;;1.90;;
10295;SDS011;5193;51.032;6.356;2023-02-28T11:58:19;2.67;;;2.37;;
10295;SDS011;5193;51.032;6.356;2023-02-28T12:00:57;2.57;;;2.00;;
10295;SDS011;5193;51.032;6.356;2023-02-28T12:06:40;2.07;;;1.83;;
10295;SDS011;5193;51.032;6.356;2023-02-28T12:12:14;2.57;;;2.10;;
10295;SDS011;5193;51.032;6.356;2023-02-28T12:14:49;2.83;;;2.17;;
10295;SDS011;5193;51.032;6.356;2023-02-28T12:17:43;2.53;;;1.80;;
10295;SDS011;5193;51.032;6.356;2023-02-28T12:28:14;2.13;;;1.77;;
10295;SDS011;5193;51.032;6.356;2023-02-28T12:30:51;5.10;;;2.20;;
10295;SDS011;5193;51.032;6.356;2023-02-28T12:33:26;3.60;;;1.97;;
10295;SDS011;5193;51.032;6.356;2023-02-28T12:35:59;7.03;;;1.90;;
10295;SDS011;5193;51.032;6.356;2023-02-28T12:38:29;3.10;;;1.87;;
10295;SDS011;5193;51.032;6.356;2023-02-28T12:41:02;2.50;;;1.90;;
10295;SDS011;5193;51.032;6.356;2023-02-28T12:43:33;2.03;;;1.83;;
10295;SDS011;5193;51.032;6.356;2023-02-28T12:46:17;3.83;;;1.53;;
10295;SDS011;5193;51.032;6.356;2023-02-28T12:48:50;2.80;;;1.90;;
10295;SDS011;5193;51.032;6.356;2023-02-28T12:51:21;4.80;;;2.10;;
10295;SDS011;5193;51.032;6.356;2023-02-28T12:59:19;2.67;;;1.73;;
10295;SDS011;5193;51.032;6.356;2023-02-28T13:10:49;3.03;;;2.10;;
10295;SDS011;5193;51.032;6.356;2023-02-28T13:13:25;3.10;;;1.80;;
10295;SDS011;5193;51.032;6.356;2023-02-28T13:21:03;2.57;;;2.10;;
10295;SDS011;5193;51.032;6.356;2023-02-28T13:23:38;3.83;;;2.20;;
10295;SDS011;5193;51.032;6.356;2023-02-28T13:26:16;2.53;;;2.20;;
10295;SDS011;5193;51.032;6.356;2023-02-28T13:31:18;2.70;;;2.03;;
10295;SDS011;5193;51.032;6.356;2023-02-28T13:54:39;3.40;;;2.57;;
10295;SDS011;5193;51.032;6.356;2023-02-28T13:57:42;5.13;;;2.80;;
10295;SDS011;5193;51.032;6.356;2023-02-28T14:09:00;5.90;;;3.63;;
10295;SDS011;5193;51.032;6.356;2023-02-28T14:11:33;6.40;;;4.77;;
10295;SDS011;5193;51.032;6.356;2023-02-28T14:14:00;2.83;;;2.33;;
10295;SDS011;5193;51.032;6.356;2023-02-28T14:16:49;2.70;;;2.40;;
10295;SDS011;5193;51.032;6.356;2023-02-28T14:19:17;4.53;;;3.30;;
10295;SDS011;5193;51.032;6.356;2023-02-28T14:38:20;2.50;;;2.30;;
10295;SDS011;5193;51.032;6.356;2023-02-28T14:40:49;3.23;;;2.20;;
10295;SDS011;5193;51.032;6.356;2023-02-28T14:43:22;2.73;;;2.30;;
10295;SDS011;5193;51.032;6.356;2023-02-28T14:45:54;2.13;;;1.93;;
10295;SDS011;5193;51.032;6.356;2023-02-28T14:48:22;2.97;;;2.30;;
10295;SDS011;5193;51.032;6.356;2023-02-28T14:50:51;2.27;;;2.00;;
10295;SDS011;5193;51.032;6.356;2023-02-28T14:53:22;5.73;;;1.87;;
10295;SDS011;5193;51.032;6.356;2023-02-28T14:55:50;7.07;;;2.20;;
10295;SDS011;5193;51.032;6.356;2023-02-28T14:58:28;4.47;;;2.13;;
10295;SDS011;5193;51.032;6.356;2023-02-28T15:01:01;2.67;;;2.00;;
10295;SDS011;5193;51.032;6.356;2023-02-28T15:03:32;3.60;;;2.17;;
10295;SDS011;5193;51.032;6.356;2023-02-28T15:06:01;4.37;;;2.27;;
10295;SDS011;5193;51.032;6.356;2023-02-28T15:08:32;6.63;;;2.50;;
10295;SDS011;5193;51.032;6.356;2023-02-28T15:13:36;4.67;;;2.67;;
10295;SDS011;5193;51.032;6.356;2023-02-28T15:16:06;4.07;;;2.10;;
10295;SDS011;5193;51.032;6.356;2023-02-28T15:18:44;5.30;;;3.53;;
10295;SDS011;5193;51.032;6.356;2023-02-28T15:21:21;3.90;;;2.30;;
10295;SDS011;5193;51.032;6.356;2023-02-28T15:24:37;2.60;;;1.97;;
10295;SDS011;5193;51.032;6.356;2023-02-28T15:26:59;5.53;;;2.30;;
10295;SDS011;5193;51.032;6.356;2023-02-28T15:29:29;2.40;;;1.90;;
10295;SDS011;5193;51.032;6.356;2023-02-28T15:32:02;4.43;;;2.07;;
10295;SDS011;5193;51.032;6.356;2023-02-28T15:34:34;4.63;;;2.00;;
10295;SDS011;5193;51.032;6.356;2023-02-28T15:37:27;3.17;;;2.33;;
10295;SDS011;5193;51.032;6.356;2023-02-28T15:40:12;5.83;;;2.23;;
10295;SDS011;5193;51.032;6.356;2023-02-28T15:42:38;2.60;;;2.03;;
10295;SDS011;5193;51.032;6.356;2023-02-28T15:45:04;2.47;;;2.27;;
10295;SDS011;5193;51.032;6.356;2023-02-28T15:47:30;3.07;;;2.03;;
10295;SDS011;5193;51.032;6.356;2023-02-28T15:50:00;4.17;;;2.27;;
10295;SDS011;5193;51.032;6.356;2023-02-28T15:52:29;4.43;;;2.43;;
10295;SDS011;5193;51.032;6.356;2023-02-28T15:55:16;4.43;;;2.10;;
10295;SDS011;5193;51.032;6.356;2023-02-28T15:57:43;4.20;;;2.40;;
10295;SDS011;5193;51.032;6.356;2023-02-28T16:00:11;2.90;;;2.60;;
10295;SDS011;5193;51.032;6.356;2023-02-28T16:02:40;3.23;;;2.47;;
10295;SDS011;5193;51.032;6.356;2023-02-28T16:07:31;3.57;;;2.30;;
10295;SDS011;5193;51.032;6.356;2023-02-28T16:09:58;2.50;;;2.30;;
10295;SDS011;5193;51.032;6.356;2023-02-28T16:12:27;5.83;;;2.33;;
10295;SDS011;5193;51.032;6.356;2023-02-28T16:14:55;4.10;;;2.50;;
10295;SDS011;5193;51.032;6.356;2023-02-28T16:17:26;4.77;;;2.40;;
10295;SDS011;5193;51.032;6.356;2023-02-28T16:19:56;2.67;;;2.43;;
10295;SDS011;5193;51.032;6.356;2023-02-28T16:22:21;6.50;;;2.77;;
10295;SDS011;5193;51.032;6.356;2023-02-28T16:24:47;3.47;;;2.27;;
10295;SDS011;5193;51.032;6.356;2023-02-28T16:27:26;4.43;;;2.83;;
10295;SDS011;5193;51.032;6.356;2023-02-28T16:29:55;6.30;;;2.47;;
10295;SDS011;5193;51.032;6.356;2023-02-28T16:32:20;7.00;;;2.87;;
10295;SDS011;5193;51.032;6.356;2023-02-28T16:34:46;7.13;;;2.40;;
10295;SDS011;5193;51.032;6.356;2023-02-28T16:37:15;5.57;;;2.00;;
10295;SDS011;5193;51.032;6.356;2023-02-28T16:39:42;6.80;;;2.50;;
10295;SDS011;5193;51.032;6.356;2023-02-28T16:42:10;3.43;;;2.67;;
10295;SDS011;5193;51.032;6.356;2023-02-28T16:44:50;4.00;;;2.57;;
10295;SDS011;5193;51.032;6.356;2023-02-28T16:47:16;3.43;;;2.50;;
10295;SDS011;5193;51.032;6.356;2023-02-28T16:49:42;3.67;;;2.57;;
10295;SDS011;5193;51.032;6.356;2023-02-28T16:52:08;2.60;;;2.40;;
10295;SDS011;5193;51.032;6.356;2023-02-28T16:54:34;4.83;;;3.10;;
10295;SDS011;5193;51.032;6.356;2023-02-28T16:57:00;5.80;;;3.00;;
10295;SDS011;5193;51.032;6.356;2023-02-28T16:59:27;5.03;;;2.93;;
10295;SDS011;5193;51.032;6.356;2023-02-28T17:01:54;4.17;;;3.27;;
10295;SDS011;5193;51.032;6.356;2023-02-28T17:04:22;4.93;;;2.80;;
10295;SDS011;5193;51.032;6.356;2023-02-28T17:06:51;2.70;;;2.50;;
10295;SDS011;5193;51.032;6.356;2023-02-28T17:09:17;4.23;;;2.83;;
10295;SDS011;5193;51.032;6.356;2023-02-28T17:11:45;3.07;;;2.60;;
10295;SDS011;5193;51.032;6.356;2023-02-28T17:14:11;3.97;;;2.90;;
10295;SDS011;5193;51.032;6.356;2023-02-28T17:16:36;4.37;;;2.87;;
10295;SDS011;5193;51.032;6.356;2023-02-28T17:19:05;6.87;;;2.90;;
10295;SDS011;5193;51.032;6.356;2023-02-28T17:21:32;4.23;;;2.93;;
10295;SDS011;5193;51.032;6.356;2023-02-28T17:23:59;16.93;;;3.60;;
10295;SDS011;5193;51.032;6.356;2023-02-28T17:26:25;5.20;;;2.90;;
10295;SDS011;5193;51.032;6.356;2023-02-28T17:28:51;6.80;;;2.80;;
10295;SDS011;5193;51.032;6.356;2023-02-28T17:31:18;4.53;;;2.93;;
10295;SDS011;5193;51.032;6.356;2023-02-28T17:33:44;5.37;;;2.97;;
10295;SDS011;5193;51.032;6.356;2023-02-28T17:36:11;7.00;;;3.20;;
10295;SDS011;5193;51.032;6.356;2023-02-28T17:38:46;4.23;;;2.80;;